• Join FlightAware (Why Join?)
  • Login
  • US Flag 
01:37AM EDT


 

Airport Tracker/Info


-or-


 

Live Flight TrackerFlight Track Log ✈ F-HPJG ✈ 29-Apr-2013 ✈ LFPG / CDG - FAOR / JNB

Flight Track Log - Related Links

Times and Time Zones

All times are in EDT time to prevent confusion due to time zone crossing. See the F-HPJG flight status page for this flight to view local times or setup timezone preferences in your user account.

Time Position Orientation Groundspeed Altitude Reporting Facility
EDT Latitude Longitude Course Direction KTS MPH feet Rate Location/Type
05:52PM 47.5331 3.4957 157° South  Level Estimated
05:52PM 48.9961 2.5626 157° South 169 194 200  Level FlightAware ADS-B
05:53PM 47.4341 3.5568 157° South  Level Estimated
05:53PM 48.9955 2.5527 265° West 168 193 400  Level FlightAware ADS-B
05:53PM 48.9947 2.5427 263° West 167 192 600 1,500 Climbing FlightAware ADS-B
05:53PM 48.9933 2.5244 263° West 170 196 1,000 1,500 Climbing FlightAware ADS-B
05:53PM 48.9918 2.5046 263° West 169 194 1,400 1,260 Climbing FlightAware ADS-B
05:54PM 48.9904 2.4866 263° West 168 193 1,700 1,200 Climbing FlightAware ADS-B
05:54PM 48.9892 2.4697 264° West 172 198 2,000 1,440 Climbing FlightAware ADS-B
05:54PM 48.9880 2.4513 264° West 174 200 2,400 1,800 Climbing FlightAware ADS-B
05:54PM 48.9874 2.4413 265° West 174 200 2,700 2,040 Climbing FlightAware ADS-B
05:54PM 48.9864 2.4226 265° West 172 198 3,200 1,500 Climbing FlightAware ADS-B
05:55PM 48.9855 2.4029 266° West 179 206 3,500 960 Climbing FlightAware ADS-B
05:55PM 48.9851 2.3927 267° West 194 223 3,600 840 Climbing FlightAware ADS-B
05:55PM 48.9840 2.3728 265° West 212 244 3,800 780 Climbing FlightAware ADS-B
05:55PM 48.9833 2.3606 265° West 223 257 3,900 780 Climbing FlightAware ADS-B
05:55PM 48.9819 2.3359 265° West 244 281 4,100 1,080 Climbing FlightAware ADS-B
05:56PM 48.9808 2.3146 266° West 259 298 4,400 1,620 Climbing FlightAware ADS-B
05:56PM 48.9800 2.3051 263° West 259 298 4,600 1,980 Climbing FlightAware ADS-B
05:56PM 48.9783 2.2947 256° West 259 298 4,800 2,400 Climbing FlightAware ADS-B
05:56PM 48.9762 2.2871 247° West 259 298 5,000 3,300 Climbing FlightAware ADS-B
05:56PM 48.9729 2.2787 239° Southwest 258 297 5,300 3,000 Climbing FlightAware ADS-B
05:56PM 48.9667 2.2664 232° Southwest 260 299 5,700 2,280 Climbing FlightAware ADS-B
05:56PM 48.9635 2.2613 226° Southwest 261 300 5,800 1,800 Climbing FlightAware ADS-B
05:56PM 48.9580 2.2541 221° Southwest 267 307 6,000 1,380 Climbing FlightAware ADS-B
05:56PM 48.9502 2.2453 216° Southwest 277 319 6,100 1,740 Climbing FlightAware ADS-B
05:57PM 48.9399 2.2351 213° Southwest 281 323 6,500 3,000 Climbing FlightAware ADS-B
05:57PM 48.9284 2.2249 210° Southwest 274 315 7,100 3,180 Climbing FlightAware ADS-B
05:57PM 48.9113 2.2109 208° Southwest 273 314 7,900 2,760 Climbing FlightAware ADS-B
05:57PM 48.8958 2.1985 208° Southwest 275 316 8,500 2,820 Climbing FlightAware ADS-B
05:57PM 48.8890 2.1938 205° Southwest 274 315 8,800 3,000 Climbing FlightAware ADS-B
05:57PM 48.8837 2.1911 198° South 274 315 9,000 2,220 Climbing FlightAware ADS-B
05:57PM 48.8796 2.1896 194° South 275 316 9,100 1,680 Climbing FlightAware ADS-B
05:58PM 48.8753 2.1886 189° South 276 318 9,200 1,860 Climbing FlightAware ADS-B
05:58PM 48.8592 2.1878 182° South 284 327 9,600 1,980 Climbing FlightAware ADS-B
05:58PM 48.8228 2.1900 178° South 296 341 10,500 1,620 Climbing FlightAware ADS-B
05:59PM 48.7784 2.1957 175° South 324 373 11,200 1,740 Climbing FlightAware ADS-B
05:59PM 48.7270 2.2020 175° South 331 381 12,500 2,580 Climbing FlightAware
05:59PM 48.7090 2.2029 178° South 327 376 13,200 2,220 Climbing FlightAware ADS-B
06:00PM 48.6690 2.2050 178° South 334 384 14,200 2,040 Climbing FlightAware
06:01PM 48.6050 2.2120 176° South 344 396 15,800 2,580 Climbing FlightAware
06:01PM 48.5360 2.2190 176° South 335 386 17,900 1,740 Climbing FlightAware
06:02PM 48.4720 2.2340 171° South 373 429 18,300 600 Climbing FlightAware
06:03PM 48.4130 2.2500 170° South 402 463 18,700 1,200 Climbing FlightAware
06:04PM 48.3050 2.2760 171° South 424 488 20,000 1,620 Climbing FlightAware
06:04PM 48.2210 2.2970 171° South 436 502 21,200 2,160 Climbing FlightAware
06:05PM 48.1350 2.3260 167° South 430 495 23,100 2,040 Climbing FlightAware
06:06PM 48.0580 2.3560 165° South 436 502 24,100 1,500 Climbing FlightAware
06:06PM 47.9800 2.3870 165° South 443 510 25,100 1,440 Climbing FlightAware
06:07PM 47.8880 2.4220 166° South 450 518 26,200 1,320 Climbing FlightAware
06:08PM 47.8110 2.4530 165° South 457 526 27,000 1,320 Climbing FlightAware
06:08PM 47.7180 2.4890 165° South 459 528 28,100 1,320 Climbing FlightAware
06:09PM 47.6340 2.5220 165° South 463 533 28,900 1,320 Climbing FlightAware
06:10PM 47.5520 2.5530 166° South 460 529 29,900 2,040 Climbing FlightAware
06:11PM 47.4590 2.5890 165° South 442 509 31,800 1,680 Climbing FlightAware
06:11PM 47.3830 2.6180 166° South 448 516 32,300 1,020 Climbing FlightAware
06:12PM 47.2900 2.6530 166° South 446 513 33,300 1,440 Climbing FlightAware
06:13PM 47.2070 2.6850 165° South 437 503 34,400 1,560 Climbing FlightAware
06:13PM 47.1340 2.7130 165° South 426 490 35,400 1,440 Climbing FlightAware
06:14PM 47.0470 2.7460 166° South 416 479 36,500 1,080 Climbing FlightAware
06:15PM 46.9740 2.7730 166° South 414 476 37,000 300 Climbing FlightAware
06:15PM 46.8870 2.8060 165° South 425 489 37,000  Level FlightAware
06:16PM 46.8150 2.8330 166° South 427 491 37,000  Level FlightAware
06:17PM 46.7380 2.8620 166° South 427 491 37,000  Level FlightAware
06:18PM 46.6500 2.8940 166° South 424 488 37,000  Level FlightAware
06:18PM 46.5740 2.9230 165° South 421 484 37,000  Level FlightAware
06:19PM 46.4920 2.9530 166° South 422 486 37,000  Level FlightAware
06:20PM 46.4130 2.9820 166° South 426 490 37,000  Level FlightAware
06:20PM 46.3420 3.0080 166° South 425 489 37,000  Level FlightAware
06:21PM 46.2510 3.0420 166° South 426 490 37,000  Level FlightAware
06:22PM 46.1750 3.0690 166° South 427 491 37,000  Level FlightAware
06:22PM 46.0960 3.0980 166° South 432 497 37,000  Level FlightAware
06:23PM 46.0130 3.1280 166° South 433 498 37,000  Level FlightAware
06:24PM 45.9350 3.1570 166° South 431 496 37,000  Level FlightAware
06:25PM 45.8470 3.1890 166° South 432 497 37,000  Level FlightAware
06:25PM 45.7700 3.2160 166° South 430 495 37,000  Level FlightAware
06:26PM 45.6850 3.2470 166° South 428 493 37,000  Level FlightAware
06:27PM 45.6090 3.2740 166° South 429 494 37,000  Level FlightAware
06:27PM 45.5280 3.3030 166° South 427 491 37,000  Level FlightAware
06:28PM 45.4400 3.3340 166° South 424 488 37,000  Level FlightAware
06:29PM 45.3650 3.3610 166° South 422 486 37,000  Level FlightAware
06:29PM 45.2910 3.3870 166° South 418 481 37,000  Level FlightAware
06:30PM 45.2080 3.4160 166° South 416 479 37,000  Level FlightAware
06:31PM 45.1330 3.4430 166° South 411 473 37,000  Level FlightAware
06:31PM 45.0780 3.4620 166° South 410 472 37,000  Level FlightAware
06:32PM 45.0040 3.4880 166° South 411 473 37,000  Level FlightAware
06:33PM 44.9180 3.5180 166° South 412 474 37,000  Level FlightAware
06:33PM 44.8470 3.5430 166° South 411 473 37,000  Level FlightAware
06:34PM 44.7720 3.5690 166° South 411 473 37,000  Level FlightAware
06:35PM 44.6910 3.5970 166° South 414 476 37,000  Level FlightAware
06:35PM 44.6160 3.6230 166° South 416 479 37,000  Level FlightAware
06:36PM 44.5290 3.6530 166° South 422 486 37,000  Level FlightAware
06:37PM 44.4530 3.6790 166° South 418 481 37,000  Level FlightAware
06:38PM 44.3730 3.7060 166° South 410 472 37,000  Level FlightAware
06:38PM 44.2980 3.7320 166° South 409 471 37,000  Level FlightAware
06:39PM 44.2250 3.7570 166° South 411 473 37,000  Level FlightAware
06:40PM 44.1390 3.7860 166° South 414 476 37,000  Level FlightAware
06:40PM 44.0710 3.8150 163° South 421 484 37,000  Level FlightAware
06:41PM 43.9870 3.8560 161° South 429 494 37,000  Level FlightAware
06:42PM 43.9090 3.8940 161° South 432 497 37,000  Level FlightAware
06:42PM 43.8330 3.9300 161° South 430 495 37,000  Level FlightAware
06:43PM 43.7480 3.9720 160° South 426 490 37,000  Level FlightAware
06:44PM 43.6740 4.0070 161° South 422 486 37,000  Level FlightAware
06:45PM 43.5930 4.0460 161° South 421 484 37,000  Level FlightAware
06:45PM 43.5180 4.0820 161° South 423 487 37,000  Level FlightAware
06:46PM 43.4440 4.1180 161° South 426 490 37,000  Level FlightAware
06:47PM 43.3590 4.1580 161° South 428 493 37,000  Level FlightAware
06:47PM 43.2830 4.1940 161° South 430 495 37,000  Level FlightAware
06:48PM 43.2000 4.2330 161° South 429 494 37,000  Level FlightAware
06:49PM 43.1250 4.2690 161° South 429 494 37,000  Level FlightAware
06:49PM 43.0510 4.3040 161° South 430 495 37,000  Level FlightAware
06:50PM 42.9640 4.3450 161° South 431 496 37,000  Level FlightAware
06:51PM 42.8880 4.3800 161° South 430 495 37,000  Level FlightAware
06:52PM 42.8120 4.4160 161° South 430 495 37,000  Level FlightAware
06:52PM 42.7290 4.4540 161° South 434 499 37,000  Level FlightAware
06:53PM 42.6560 4.4880 161° South 437 503 37,000  Level FlightAware
06:54PM 42.5650 4.5300 161° South 440 506 37,000  Level FlightAware
06:54PM 42.4890 4.5660 161° South 441 507 37,000  Level FlightAware
06:55PM 42.4030 4.6050 161° South 441 507 37,000  Level FlightAware
06:56PM 42.3260 4.6410 161° South 439 505 37,000  Level FlightAware
06:57PM 42.2420 4.6790 161° South 438 504 37,000  Level FlightAware
06:57PM 42.1550 4.7190 161° South 438 504 37,000  Level FlightAware
06:58PM 42.0590 4.7630 161° South 432 497 37,000  Level FlightAware
06:59PM 41.9710 4.8030 161° South 429 494 37,000  Level FlightAware
07:00PM 41.8980 4.8360 161° South 429 494 37,000  Level FlightAware
07:00PM 41.8220 4.8700 162° South 428 493 37,000  Level FlightAware
07:01PM 41.7360 4.9090 161° South 427 491 37,000  Level FlightAware
07:02PM 41.6600 4.9430 162° South 427 491 37,000  Level FlightAware
07:02PM 41.5790 4.9790 162° South 428 493 37,000  Level FlightAware
07:03PM 41.5030 5.0130 161° South 428 493 37,000  Level FlightAware
07:04PM 41.4280 5.0470 161° South 426 490 37,000  Level FlightAware
07:04PM 41.3590 5.0780 161° South 427 491 37,000  Level FlightAware
07:05PM 41.2680 5.1180 162° South 430 495 37,000  Level FlightAware
07:06PM 41.2060 5.1450 162° South 431 496 37,000  Level FlightAware
07:07PM 41.1080 5.1890 161° South 438 504 37,000  Level FlightAware
07:07PM 41.0070 5.2340 161° South 439 505 37,000  Level FlightAware
07:08PM 40.9160 5.2730 162° South 436 502 37,000  Level FlightAware
07:09PM 40.8390 5.3070 162° South 434 499 37,000  Level FlightAware
07:10PM 40.7670 5.3380 162° South 433 498 37,000  Level FlightAware
07:11PM 40.6580 5.3870 161° South 432 497 37,000  Level FlightAware
07:11PM 40.5940 5.4160 161° South 432 497 37,000  Level FlightAware
07:12PM 40.5000 5.4540 163° South 430 495 37,000  Level FlightAware
07:13PM 40.4120 5.4930 161° South 429 494 37,000  Level FlightAware
07:14PM 40.3190 5.5320 162° South 425 489 37,000  Level FlightAware
07:14PM 40.2370 5.5670 162° South 426 490 37,000  Level FlightAware
07:15PM 40.1700 5.5960 162° South 426 490 37,000  Level FlightAware
07:16PM 40.0760 5.6360 162° South 425 489 37,000  Level FlightAware
07:16PM 40.0020 5.6680 162° South 426 490 37,000  Level FlightAware
07:17PM 39.9200 5.7030 162° South 426 490 37,000  Level FlightAware
07:18PM 39.8430 5.7360 162° South 427 491 37,000  Level FlightAware
07:18PM 39.7580 5.7710 162° South 423 487 37,000  Level FlightAware
07:19PM 39.6820 5.8030 162° South 437 503 37,000  Level FlightAware
07:20PM 39.6060 5.8360 162° South 437 503 37,000  Level FlightAware
07:21PM 39.5170 5.8730 162° South 425 489 37,000  Level FlightAware
07:21PM 39.4430 5.9040 162° South 424 488 37,000  Level FlightAware
07:22PM 39.3580 5.9390 162° South 424 488 37,000  Level FlightAware
07:23PM 39.2800 5.9720 162° South 422 486 37,000  Level FlightAware
07:23PM 39.1930 6.0080 162° South 424 488 37,000  Level FlightAware
07:24PM 39.1160 6.0250 170° South 423 487 37,000  Level FlightAware
07:25PM 39.0360 6.0420 171° South 425 489 37,000  Level FlightAware
07:25PM 38.9480 6.0610 170° South 428 493 37,000  Level FlightAware
07:26PM 38.8680 6.0780 171° South 438 504 37,000  Level FlightAware
07:27PM 38.7900 6.0950 170° South 438 504 37,000  Level FlightAware
07:28PM 38.6970 6.1150 170° South 439 505 37,000  Level FlightAware
07:28PM 38.6290 6.1290 171° South 440 506 37,000  Level FlightAware
07:29PM 38.5500 6.1470 170° South 440 506 37,000  Level FlightAware
07:30PM 38.4820 6.1620 170° South 440 506 37,000  Level FlightAware
07:30PM 38.3970 6.1810 170° South 440 506 37,000  Level FlightAware
07:31PM 38.3290 6.1970 170° South 440 506 37,000  Level FlightAware
07:32PM 38.1900 6.2210 172° South 438 504 37,000  Level FlightAware
07:33PM 38.0930 6.2420 170° South 438 504 37,000  Level FlightAware
07:33PM 37.9970 6.2630 170° South 438 504 37,000  Level FlightAware
07:34PM 37.9290 6.2780 170° South 438 504 37,000  Level FlightAware
07:35PM 37.8610 6.2930 170° South 438 504 37,000  Level FlightAware
07:35PM 37.7930 6.3080 170° South 438 504 37,000  Level FlightAware
07:36PM 37.7080 6.3270 170° South 438 504 37,000  Level FlightAware
07:37PM 37.6410 6.3420 170° South 438 504 37,000  Level FlightAware
07:38PM 37.5730 6.3570 170° South 438 504 37,000  Level FlightAware
07:38PM 37.5050 6.3720 170° South 438 504 37,000  Level FlightAware
07:39PM 37.4370 6.3870 170° South 438 504 37,000  Level FlightAware
07:40PM 37.3520 6.4060 170° South 438 504 37,000  Level FlightAware
07:40PM 37.2840 6.4210 170° South 438 504 37,000  Level FlightAware
07:41PM 37.2170 6.4360 170° South 438 504 37,000  Level FlightAware
07:42PM 37.1490 6.4510 170° South 438 504 37,000  Level FlightAware
07:42PM 37.0810 6.4660 170° South 438 504 37,000  Level FlightAware
07:45PM 36.8346 6.5860 159° South  Level Estimated
07:46PM 36.7191 6.6420 159° South  Level Estimated
07:47PM 36.6035 6.6979 159° South  Level Estimated
07:48PM 36.4879 6.7535 159° South  Level Estimated
07:49PM 36.3723 6.8090 159° South  Level Estimated
07:50PM 36.2567 6.8643 159° South  Level Estimated
07:51PM 36.1410 6.9195 159° South  Level Estimated
07:52PM 36.0253 6.9745 159° South  Level Estimated
07:53PM 35.9096 7.0294 159° South  Level Estimated
07:54PM 35.7938 7.0841 159° South  Level Estimated
07:55PM 35.6781 7.1386 159° South  Level Estimated
07:56PM 35.5623 7.1929 159° South  Level Estimated
07:57PM 35.4465 7.2472 159° South  Level Estimated
07:58PM 35.3306 7.3012 159° South  Level Estimated
07:59PM 35.2148 7.3551 159° South  Level Estimated
08:00PM 35.0989 7.4089 159° South  Level Estimated
08:01PM 34.9830 7.4625 159° South  Level Estimated
08:02PM 34.8670 7.5159 159° South  Level Estimated
08:03PM 34.7511 7.5692 159° South  Level Estimated
08:04PM 34.6351 7.6223 159° South  Level Estimated
08:05PM 34.5191 7.6753 159° South  Level Estimated
08:06PM 34.4030 7.7282 159° South  Level Estimated
08:07PM 34.2870 7.7809 159° South  Level Estimated
08:08PM 34.1709 7.8334 159° South  Level Estimated
08:09PM 34.0548 7.8858 159° South  Level Estimated
08:10PM 33.9387 7.9381 160° South  Level Estimated
08:11PM 33.8226 7.9902 160° South  Level Estimated
08:12PM 33.7064 8.0422 160° South  Level Estimated
08:13PM 33.5902 8.0940 160° South  Level Estimated
08:14PM 33.4740 8.1457 160° South  Level Estimated
08:15PM 33.3578 8.1973 160° South  Level Estimated
08:16PM 33.2416 8.2487 160° South  Level Estimated
08:17PM 33.1253 8.3000 160° South  Level Estimated
08:18PM 33.0090 8.3512 160° South  Level Estimated
08:19PM 32.8927 8.4022 160° South  Level Estimated
08:20PM 32.7763 8.4531 160° South  Level Estimated
08:21PM 32.6600 8.5038 160° South  Level Estimated
08:22PM 32.5436 8.5544 160° South  Level Estimated
08:23PM 32.4272 8.6049 160° South  Level Estimated
08:24PM 32.3108 8.6553 160° South  Level Estimated
08:25PM 32.1944 8.7055 160° South  Level Estimated
08:26PM 32.0779 8.7556 160° South  Level Estimated
08:27PM 31.9615 8.8056 160° South  Level Estimated
08:28PM 31.8450 8.8554 160° South  Level Estimated
08:29PM 31.7285 8.9052 160° South  Level Estimated
08:30PM 31.6119 8.9548 160° South  Level Estimated
08:31PM 31.4954 9.0042 160° South  Level Estimated
08:32PM 31.3788 9.0536 160° South  Level Estimated
08:33PM 31.2622 9.1028 160° South  Level Estimated
08:34PM 31.1456 9.1519 160° South  Level Estimated
08:35PM 31.0290 9.2009 160° South  Level Estimated
08:36PM 30.9124 9.2498 160° South  Level Estimated
08:37PM 30.7957 9.2985 160° South  Level Estimated
08:38PM 30.6790 9.3472 160° South  Level Estimated
08:39PM 30.5623 9.3957 160° South  Level Estimated
08:40PM 30.4456 9.4441 160° South  Level Estimated
08:41PM 30.3289 9.4924 160° South  Level Estimated
08:42PM 30.2122 9.5405 160° South  Level Estimated
08:43PM 30.0954 9.5886 160° South  Level Estimated
08:44PM 29.9786 9.6365 160° South  Level Estimated
08:45PM 29.8618 9.6843 160° South  Level Estimated
08:46PM 29.7450 9.7320 160° South  Level Estimated
08:47PM 29.6281 9.7796 160° South  Level Estimated
08:48PM 29.5113 9.8271 161° South  Level Estimated
08:49PM 29.3944 9.8745 161° South  Level Estimated
08:50PM 29.2775 9.9218 161° South  Level Estimated
08:51PM 29.1606 9.9689 161° South  Level Estimated
08:52PM 29.0437 10.0160 161° South  Level Estimated
08:53PM 28.9268 10.0630 161° South  Level Estimated
08:54PM 28.8098 10.1098 161° South  Level Estimated
08:55PM 28.6928 10.1565 161° South  Level Estimated
08:56PM 28.5758 10.2032 161° South  Level Estimated
08:57PM 28.4589 10.2497 161° South  Level Estimated
08:58PM 28.3418 10.2961 161° South  Level Estimated
08:59PM 28.2248 10.3425 161° South  Level Estimated
09:00PM 28.1077 10.3887 161° South  Level Estimated
09:01PM 27.9907 10.4348 161° South  Level Estimated
09:02PM 27.8736 10.4808 161° South  Level Estimated
09:03PM 27.7565 10.5268 161° South  Level Estimated
09:04PM 27.6394 10.5726 161° South  Level Estimated
09:05PM 27.5223 10.6183 161° South  Level Estimated
09:06PM 27.4051 10.6640 161° South  Level Estimated
09:07PM 27.2880 10.7095 161° South  Level Estimated
09:08PM 27.1708 10.7549 161° South  Level Estimated
09:09PM 27.0536 10.8003 161° South  Level Estimated
09:10PM 26.9364 10.8455 161° South  Level Estimated
09:11PM 26.8192 10.8907 161° South  Level Estimated
09:12PM 26.7020 10.9357 161° South  Level Estimated
09:13PM 26.5848 10.9807 161° South  Level Estimated
09:14PM 26.4675 11.0256 161° South  Level Estimated
09:15PM 26.3503 11.0704 161° South  Level Estimated
09:16PM 26.2330 11.1151 161° South  Level Estimated
09:17PM 26.1157 11.1597 161° South  Level Estimated
09:18PM 25.9984 11.2042 161° South  Level Estimated
09:19PM 25.8810 11.2486 161° South  Level Estimated
09:20PM 25.7637 11.2929 161° South  Level Estimated
09:21PM 25.6464 11.3372 161° South  Level Estimated
09:22PM 25.5290 11.3814 161° South  Level Estimated
09:23PM 25.4116 11.4254 161° South  Level Estimated
09:24PM 25.2942 11.4694 161° South  Level Estimated
09:25PM 25.1768 11.5133 161° South  Level Estimated
09:26PM 25.0594 11.5572 161° South  Level Estimated
09:27PM 24.9420 11.6009 161° South  Level Estimated
09:28PM 24.8245 11.6446 161° South  Level Estimated
09:29PM 24.7071 11.6881 161° South  Level Estimated
09:30PM 24.5896 11.7316 161° South  Level Estimated
09:31PM 24.4721 11.7750 161° South  Level Estimated
09:32PM 24.3546 11.8183 161° South  Level Estimated
09:33PM 24.2371 11.8616 161° South  Level Estimated
09:34PM 24.1196 11.9048 161° South  Level Estimated
09:35PM 24.0021 11.9479 161° South  Level Estimated
09:36PM 23.8846 11.9909 162° South  Level Estimated
09:37PM 23.7670 12.0338 162° South  Level Estimated
09:38PM 23.6494 12.0766 162° South  Level Estimated
09:39PM 23.5319 12.1194 162° South  Level Estimated
09:40PM 23.4143 12.1621 162° South  Level Estimated
09:41PM 23.2967 12.2048 162° South  Level Estimated
09:42PM 23.1791 12.2473 162° South  Level Estimated
09:43PM 23.0614 12.2898 162° South  Level Estimated
09:44PM 22.9438 12.3322 162° South  Level Estimated
09:45PM 22.8262 12.3745 162° South  Level Estimated
09:46PM 22.7085 12.4167 162° South  Level Estimated
09:47PM 22.5908 12.4589 162° South  Level Estimated
09:48PM 22.4732 12.5010 162° South  Level Estimated
09:49PM 22.3555 12.5431 162° South  Level Estimated
09:50PM 22.2378 12.5850 162° South  Level Estimated
09:51PM 22.1201 12.6270 162° South  Level Estimated
09:52PM 22.0023 12.6688 162° South  Level Estimated
09:53PM 21.8846 12.7105 162° South  Level Estimated
09:54PM 21.7669 12.7522 162° South  Level Estimated
09:55PM 21.6491 12.7938 162° South  Level Estimated
09:56PM 21.5314 12.8354 162° South  Level Estimated
09:57PM 21.4136 12.8769 162° South  Level Estimated
09:58PM 21.2958 12.9183 162° South  Level Estimated
09:59PM 21.1780 12.9597 162° South  Level Estimated
10:00PM 21.0602 13.0009 162° South  Level Estimated
10:01PM 20.9424 13.0422 162° South  Level Estimated
10:02PM 20.8246 13.0833 162° South  Level Estimated
10:03PM 20.7068 13.1244 162° South  Level Estimated
10:04PM 20.5889 13.1654 162° South  Level Estimated
10:05PM 20.4711 13.2064 162° South  Level Estimated
10:06PM 20.3532 13.2473 162° South  Level Estimated
10:07PM 20.2353 13.2881 162° South  Level Estimated
10:08PM 20.1175 13.3289 162° South  Level Estimated
10:09PM 19.9996 13.3696 162° South  Level Estimated
10:10PM 19.8817 13.4103 162° South  Level Estimated
10:11PM 19.7638 13.4509 162° South  Level Estimated
10:12PM 19.6458 13.4914 162° South  Level Estimated
10:13PM 19.5279 13.5319 162° South  Level Estimated
10:14PM 19.4100 13.5723 162° South  Level Estimated
10:15PM 19.2920 13.6127 162° South  Level Estimated
10:16PM 19.1741 13.6530 162° South  Level Estimated
10:17PM 19.0561 13.6932 162° South  Level Estimated
10:18PM 18.9381 13.7334 162° South  Level Estimated
10:19PM 18.8202 13.7735 162° South  Level Estimated
10:20PM 18.7022 13.8136 162° South  Level Estimated
10:21PM 18.5842 13.8536 162° South  Level Estimated
10:22PM 18.4662 13.8936 162° South  Level Estimated
10:23PM 18.3482 13.9335 162° South  Level Estimated
10:24PM 18.2301 13.9733 162° South  Level Estimated
10:25PM 18.1121 14.0131 162° South  Level Estimated
10:26PM 17.9941 14.0528 162° South  Level Estimated
10:27PM 17.8760 14.0925 162° South  Level Estimated
10:28PM 17.7580 14.1322 162° South  Level Estimated
10:29PM 17.6399 14.1718 162° South  Level Estimated
10:30PM 17.5218 14.2113 162° South  Level Estimated
10:31PM 17.4037 14.2508 162° South  Level Estimated
10:32PM 17.2857 14.2902 162° South  Level Estimated
10:33PM 17.1676 14.3296 162° South  Level Estimated
10:34PM 17.0495 14.3689 162° South  Level Estimated
10:35PM 16.9314 14.4082 162° South  Level Estimated
10:36PM 16.8132 14.4474 162° South  Level Estimated
10:37PM 16.6951 14.4866 162° South  Level Estimated
10:38PM 16.5770 14.5257 162° South  Level Estimated
10:39PM 16.4589 14.5648 162° South  Level Estimated
10:40PM 16.3407 14.6039 162° South  Level Estimated
10:41PM 16.2225 14.6428 162° South  Level Estimated
10:42PM 16.1044 14.6818 162° South  Level Estimated
10:43PM 15.9862 14.7207 162° South  Level Estimated
10:44PM 15.8680 14.7595 162° South  Level Estimated
10:45PM 15.7499 14.7984 162° South  Level Estimated
10:46PM 15.6317 14.8371 162° South  Level Estimated
10:47PM 15.5135 14.8758 162° South  Level Estimated
10:48PM 15.3953 14.9145 162° South  Level Estimated
10:49PM 15.2771 14.9531 163° South  Level Estimated
10:50PM 15.1589 14.9917 163° South  Level Estimated
10:51PM 15.0407 15.0302 163° South  Level Estimated
10:52PM 14.9224 15.0688 163° South  Level Estimated
10:53PM 14.8042 15.1072 163° South  Level Estimated
10:54PM 14.6860 15.1456 163° South  Level Estimated
10:55PM 14.5677 15.1840 163° South  Level Estimated
10:56PM 14.4494 15.2223 163° South  Level Estimated
10:57PM 14.3312 15.2606 163° South  Level Estimated
10:58PM 14.2129 15.2989 163° South  Level Estimated
10:59PM 14.0947 15.3371 163° South  Level Estimated
11:00PM 13.9764 15.3752 163° South  Level Estimated
11:01PM 13.8581 15.4134 163° South  Level Estimated
11:02PM 13.7398 15.4515 163° South  Level Estimated
11:03PM 13.6215 15.4895 163° South  Level Estimated
11:04PM 13.5032 15.5275 163° South  Level Estimated
11:05PM 13.3849 15.5655 163° South  Level Estimated
11:06PM 13.2666 15.6034 163° South  Level Estimated
11:07PM 13.1483 15.6413 163° South  Level Estimated
11:08PM 13.0299 15.6792 163° South  Level Estimated
11:09PM 12.9116 15.7170 163° South  Level Estimated
11:10PM 12.7933 15.7549 163° South  Level Estimated
11:11PM 12.6749 15.7926 163° South  Level Estimated
11:12PM 12.5566 15.8303 163° South  Level Estimated
11:13PM 12.4382 15.8680 163° South  Level Estimated
11:14PM 12.3199 15.9057 163° South  Level Estimated
11:15PM 12.2015 15.9433 163° South  Level Estimated
11:16PM 12.0831 15.9809 163° South  Level Estimated
11:17PM 11.9648 16.0185 163° South  Level Estimated
11:18PM 11.8464 16.0560 163° South  Level Estimated
11:19PM 11.7280 16.0935 163° South  Level Estimated
11:20PM 11.6096 16.1309 163° South  Level Estimated
11:21PM 11.4912 16.1684 163° South  Level Estimated
11:22PM 11.3728 16.2058 163° South  Level Estimated
11:23PM 11.2544 16.2431 163° South  Level Estimated
11:24PM 11.1360 16.2805 163° South  Level Estimated
11:25PM 11.0176 16.3178 163° South  Level Estimated
11:26PM 10.8992 16.3550 163° South  Level Estimated
11:27PM 10.7808 16.3923 163° South  Level Estimated
11:28PM 10.6624 16.4295 163° South  Level Estimated
11:29PM 10.5440 16.4667 163° South  Level Estimated
11:30PM 10.4255 16.5038 163° South  Level Estimated
11:31PM 10.3071 16.5409 163° South  Level Estimated
11:32PM 10.1886 16.5780 163° South  Level Estimated
11:33PM 10.0702 16.6151 163° South  Level Estimated
11:34PM 9.9517 16.6522 163° South  Level Estimated
11:35PM 9.8333 16.6892 163° South  Level Estimated
11:36PM 9.7148 16.7262 163° South  Level Estimated
11:37PM 9.5964 16.7631 163° South  Level Estimated
11:38PM 9.4779 16.8001 163° South  Level Estimated
11:39PM 9.3595 16.8370 163° South  Level Estimated
11:40PM 9.2410 16.8739 163° South  Level Estimated
11:41PM 9.1225 16.9107 163° South  Level Estimated
11:42PM 9.0040 16.9476 163° South  Level Estimated
11:43PM 8.8855 16.9844 163° South  Level Estimated
11:44PM 8.7670 17.0212 163° South  Level Estimated
11:45PM 8.6486 17.0580 163° South  Level Estimated
11:46PM 8.5301 17.0947 163° South  Level Estimated
11:47PM 8.4116 17.1314 163° South  Level Estimated
11:48PM 8.2931 17.1681 163° South  Level Estimated
11:49PM 8.1746 17.2048 163° South  Level Estimated
11:50PM 8.0561 17.2415 163° South  Level Estimated
11:51PM 7.9376 17.2781 163° South  Level Estimated
11:52PM 7.8190 17.3147 163° South  Level Estimated
11:53PM 7.7005 17.3513 163° South  Level Estimated
11:54PM 7.5820 17.3879 163° South  Level Estimated
11:55PM 7.4635 17.4244 163° South  Level Estimated
11:56PM 7.3450 17.4610 163° South  Level Estimated
11:57PM 7.2264 17.4975 163° South  Level Estimated
11:58PM 7.1079 17.5340 163° South  Level Estimated
11:59PM 6.9894 17.5704 163° South  Level Estimated
12:00AM 6.8708 17.6069 163° South  Level Estimated
12:01AM 6.7523 17.6433 163° South  Level Estimated
12:02AM 6.6337 17.6798 163° South  Level Estimated
12:03AM 6.5152 17.7162 163° South  Level Estimated
12:04AM 6.3966 17.7525 163° South  Level Estimated
12:05AM 6.2781 17.7889 163° South  Level Estimated
12:06AM 6.1595 17.8253 163° South  Level Estimated
12:07AM 6.0410 17.8616 163° South  Level Estimated
12:08AM 5.9224 17.8979 163° South  Level Estimated
12:09AM 5.8039 17.9342 163° South  Level Estimated
12:10AM 5.6853 17.9705 163° South  Level Estimated
12:11AM 5.5667 18.0068 163° South  Level Estimated
12:12AM 5.4482 18.0430 163° South  Level Estimated
12:13AM 5.3296 18.0793 163° South  Level Estimated
12:14AM 5.2110 18.1155 163° South  Level Estimated
12:15AM 5.0925 18.1517 163° South  Level Estimated
12:16AM 4.9739 18.1879 163° South  Level Estimated
12:17AM 4.8553 18.2241 163° South  Level Estimated
12:18AM 4.7367 18.2603 163° South  Level Estimated
12:19AM 4.6181 18.2965 163° South  Level Estimated
12:20AM 4.4995 18.3326 163° South  Level Estimated
12:21AM 4.3810 18.3688 163° South  Level Estimated
12:22AM 4.2624 18.4049 163° South  Level Estimated
12:23AM 4.1438 18.4410 163° South  Level Estimated
12:24AM 4.0252 18.4771 163° South  Level Estimated
12:25AM 3.9066 18.5132 163° South  Level Estimated
12:26AM 3.7880 18.5493 163° South  Level Estimated
12:27AM 3.6694 18.5854 163° South  Level Estimated
12:28AM 3.5508 18.6215 163° South  Level Estimated
12:29AM 3.4322 18.6575 163° South  Level Estimated
12:30AM 3.3136 18.6936 163° South  Level Estimated
12:31AM 3.1950 18.7296 163° South  Level Estimated
12:32AM 3.0764 18.7656 163° South  Level Estimated
12:33AM 2.9578 18.8017 163° South  Level Estimated
12:34AM 2.8392 18.8377 163° South  Level Estimated
12:35AM 2.7206 18.8737 163° South  Level Estimated
12:36AM 2.6020 18.9097 163° South  Level Estimated
12:37AM 2.4834 18.9457 163° South  Level Estimated
12:38AM 2.3648 18.9817 163° South  Level Estimated
12:39AM 2.2462 19.0177 163° South  Level Estimated
12:40AM 2.1275 19.0537 163° South  Level Estimated
12:41AM 2.0089 19.0896 163° South  Level Estimated
12:42AM 1.8903 19.1256 163° South  Level Estimated
12:43AM 1.7717 19.1616 163° South  Level Estimated
12:44AM 1.6531 19.1975 163° South  Level Estimated
12:45AM 1.5345 19.2335 163° South  Level Estimated
12:46AM 1.4159 19.2694 163° South  Level Estimated
12:47AM 1.2973 19.3054 163° South  Level Estimated
12:48AM 1.1787 19.3413 163° South  Level Estimated
12:49AM 1.0600 19.3773 163° South  Level Estimated
12:50AM 0.9414 19.4132 163° South  Level Estimated
12:51AM 0.8228 19.4491 163° South  Level Estimated
12:52AM 0.7042 19.4851 163° South  Level Estimated
12:53AM 0.5856 19.5210 163° South  Level Estimated
12:54AM 0.4669 19.5569 163° South  Level Estimated
12:55AM 0.3483 19.5928 163° South  Level Estimated
12:56AM 0.2297 19.6288 163° South  Level Estimated
12:57AM 0.1111 19.6647 163° South  Level Estimated
12:58AM -0.0076 19.7006 163° South  Level Estimated
12:59AM -0.1262 19.7366 163° South  Level Estimated
01:00AM -0.2448 19.7725 163° South  Level Estimated
01:01AM -0.3634 19.8084 163° South  Level Estimated
01:02AM -0.4820 19.8444 163° South  Level Estimated
01:03AM -0.6007 19.8803 163° South  Level Estimated
01:04AM -0.7193 19.9162 163° South  Level Estimated
01:05AM -0.8379 19.9521 163° South  Level Estimated
01:06AM -0.9565 19.9881 163° South  Level Estimated
01:07AM -1.0751 20.0240 163° South  Level Estimated
01:08AM -1.1938 20.0599 163° South  Level Estimated
01:09AM -1.3124 20.0959 163° South  Level Estimated
01:10AM -1.4310 20.1318 163° South  Level Estimated
01:11AM -1.5496 20.1678 163° South  Level Estimated
01:12AM -1.6682 20.2037 163° South  Level Estimated
01:13AM -1.7868 20.2397 163° South  Level Estimated
01:14AM -1.9054 20.2757 163° South  Level Estimated
01:15AM -2.0240 20.3116 163° South  Level Estimated
01:16AM -2.1426 20.3476 163° South  Level Estimated
01:17AM -2.2613 20.3836 163° South  Level Estimated
01:18AM -2.3799 20.4196 163° South  Level Estimated
01:19AM -2.4985 20.4556 163° South  Level Estimated
01:20AM -2.6171 20.4916 163° South  Level Estimated
01:21AM -2.7357 20.5276 163° South  Level Estimated
01:22AM -2.8543 20.5636 163° South  Level Estimated
01:23AM -2.9729 20.5996 163° South  Level Estimated
01:24AM -3.0915 20.6356 163° South  Level Estimated
01:25AM -3.2101 20.6716 163° South  Level Estimated
01:26AM -3.3287 20.7077 163° South  Level Estimated
01:27AM -3.4473 20.7437 163° South  Level Estimated
01:28AM -3.5659 20.7798 163° South  Level Estimated
01:29AM -3.6845 20.8159 163° South  Level Estimated
01:30AM -3.8031 20.8519 163° South  Level Estimated
01:31AM -3.9217 20.8880 163° South  Level Estimated
01:32AM -4.0403 20.9241 163° South  Level Estimated
01:33AM -4.1589 20.9603 163° South  Level Estimated
01:34AM -4.2775 20.9964 163° South  Level Estimated
01:35AM -4.3960 21.0325 163° South  Level Estimated
01:36AM -4.5146 21.0686 163° South  Level Estimated
01:37AM -4.6332 21.1048 163° South  Level Estimated
01:38AM -4.7518 21.1410 163° South  Level Estimated
01:39AM -4.8704 21.1772 163° South  Level Estimated
01:40AM -4.9889 21.2133 163° South  Level Estimated
01:41AM -5.1075 21.2495 163° South  Level Estimated
01:42AM -5.2261 21.2858 163° South  Level Estimated
01:43AM -5.3447 21.3220 163° South  Level Estimated
01:44AM -5.4632 21.3582 163° South  Level Estimated
01:45AM -5.5818 21.3945 163° South  Level Estimated
01:46AM -5.7004 21.4308 163° South  Level Estimated
01:47AM -5.8189 21.4671 163° South  Level Estimated
01:48AM -5.9375 21.5034 163° South  Level Estimated
01:49AM -6.0560 21.5397 163° South  Level Estimated
01:50AM -6.1746 21.5760 163° South  Level Estimated
01:51AM -6.2932 21.6124 163° South  Level Estimated
01:52AM -6.4117 21.6488 163° South  Level Estimated
01:53AM -6.5303 21.6852 163° South  Level Estimated
01:54AM -6.6488 21.7216 163° South  Level Estimated
01:55AM -6.7674 21.7580 163° South  Level Estimated
01:56AM -6.8859 21.7944 163° South  Level Estimated
01:57AM -7.0044 21.8309 163° South  Level Estimated
01:58AM -7.1230 21.8674 163° South  Level Estimated
01:59AM -7.2415 21.9039 163° South  Level Estimated
02:00AM -7.3600 21.9404 163° South  Level Estimated
02:01AM -7.4785 21.9769 163° South  Level Estimated
02:02AM -7.5971 22.0135 163° South  Level Estimated
02:03AM -7.7156 22.0501 163° South  Level Estimated
02:04AM -7.8341 22.0867 163° South  Level Estimated
02:05AM -7.9526 22.1233 163° South  Level Estimated
02:06AM -8.0711 22.1599 163° South  Level Estimated
02:07AM -8.1896 22.1966 163° South  Level Estimated
02:08AM -8.3081 22.2333 163° South  Level Estimated
02:09AM -8.4266 22.2700 163° South  Level Estimated
02:10AM -8.5451 22.3067 163° South  Level Estimated
02:11AM -8.6636 22.3435 163° South  Level Estimated
02:12AM -8.7821 22.3802 163° South  Level Estimated
02:13AM -8.9006 22.4170 163° South  Level Estimated
02:14AM -9.0191 22.4538 163° South  Level Estimated
02:15AM -9.1376 22.4907 163° South  Level Estimated
02:16AM -9.2561 22.5275 163° South  Level Estimated
02:17AM -9.3745 22.5644 163° South  Level Estimated
02:18AM -9.4930 22.6014 163° South  Level Estimated
02:19AM -9.6115 22.6383 163° South  Level Estimated
02:20AM -9.7299 22.6753 163° South  Level Estimated
02:21AM -9.8484 22.7123 163° South  Level Estimated
02:22AM -9.9668 22.7493 163° South  Level Estimated
02:23AM -10.0853 22.7863 163° South  Level Estimated
02:24AM -10.2037 22.8234 163° South  Level Estimated
02:25AM -10.3222 22.8605 163° South  Level Estimated
02:26AM -10.4406 22.8976 163° South  Level Estimated
02:27AM -10.5590 22.9348 163° South  Level Estimated
02:28AM -10.6775 22.9720 163° South  Level Estimated
02:29AM -10.7959 23.0092 163° South  Level Estimated
02:30AM -10.9143 23.0465 163° South  Level Estimated
02:31AM -11.0327 23.0837 163° South  Level Estimated
02:32AM -11.1511 23.1211 163° South  Level Estimated
02:33AM -11.2695 23.1584 163° South  Level Estimated
02:34AM -11.3879 23.1958 163° South  Level Estimated
02:35AM -11.5063 23.2332 163° South  Level Estimated
02:36AM -11.6247 23.2706 163° South  Level Estimated
02:37AM -11.7431 23.3081 163° South  Level Estimated
02:38AM -11.8615 23.3456 163° South  Level Estimated
02:39AM -11.9798 23.3831 163° South  Level Estimated
02:40AM -12.0982 23.4206 163° South  Level Estimated
02:41AM -12.2166 23.4582 163° South  Level Estimated
02:42AM -12.3349 23.4959 163° South  Level Estimated
02:43AM -12.4533 23.5335 163° South  Level Estimated
02:44AM -12.5716 23.5712 163° South  Level Estimated
02:45AM -12.6900 23.6089 163° South  Level Estimated
02:46AM -12.8083 23.6467 163° South  Level Estimated
02:47AM -12.9267 23.6845 163° South  Level Estimated
02:48AM -13.0450 23.7224 163° South  Level Estimated
02:49AM -13.1633 23.7602 163° South  Level Estimated
02:50AM -13.2816 23.7981 163° South  Level Estimated
02:51AM -13.3999 23.8361 163° South  Level Estimated
02:52AM -13.5183 23.8741 163° South  Level Estimated
02:53AM -13.6365 23.9121 163° South  Level Estimated
02:54AM -13.7548 23.9501 163° South  Level Estimated
02:55AM -13.8731 23.9883 163° South  Level Estimated
02:56AM -13.9914 24.0264 163° South  Level Estimated
02:57AM -14.1097 24.0646 163° South  Level Estimated
02:58AM -14.2280 24.1028 163° South  Level Estimated
02:59AM -14.3462 24.1411 163° South  Level Estimated
03:00AM -14.4645 24.1793 163° South  Level Estimated
03:01AM -14.5827 24.2177 163° South  Level Estimated
03:02AM -14.7010 24.2561 163° South  Level Estimated
03:03AM -14.8192 24.2945 163° South  Level Estimated
03:04AM -14.9375 24.3330 163° South  Level Estimated
03:05AM -15.0557 24.3715 163° South  Level Estimated
03:06AM -15.1739 24.4100 163° South  Level Estimated
03:07AM -15.2921 24.4486 163° South  Level Estimated
03:08AM -15.4103 24.4872 163° South  Level Estimated
03:09AM -15.5285 24.5259 163° South  Level Estimated
03:10AM -15.6467 24.5646 162° South  Level Estimated
03:11AM -15.7649 24.6034 162° South  Level Estimated
03:12AM -15.8831 24.6422 162° South  Level Estimated
03:13AM -16.0012 24.6811 162° South  Level Estimated
03:14AM -16.1194 24.7200 162° South  Level Estimated
03:15AM -16.2376 24.7589 162° South  Level Estimated
03:16AM -16.3557 24.7979 162° South  Level Estimated
03:17AM -16.4739 24.8370 162° South  Level Estimated
03:18AM -16.5920 24.8760 162° South  Level Estimated
03:19AM -16.7101 24.9152 162° South  Level Estimated
03:20AM -16.8283 24.9544 162° South  Level Estimated
03:21AM -16.9464 24.9936 162° South  Level Estimated
03:22AM -17.0645 25.0329 162° South  Level Estimated
03:23AM -17.1826 25.0722 162° South  Level Estimated
03:24AM -17.3007 25.1116 162° South  Level Estimated
03:25AM -17.4188 25.1511 162° South  Level Estimated
03:26AM -17.5369 25.1906 162° South  Level Estimated
03:27AM -17.6549 25.2301 162° South  Level Estimated
03:28AM -17.7730 25.2697 162° South  Level Estimated
03:29AM -17.8910 25.3093 162° South  Level Estimated
03:30AM -18.0091 25.3490 162° South  Level Estimated
03:31AM -18.1271 25.3888 162° South  Level Estimated
03:31AM -23.3270 26.2680 162° South 496 571 39,000  Level FlightAware
03:32AM -18.2452 25.4286 162° South  Level Estimated
03:32AM -23.4110 26.3090 156° South 496 571 39,000  Level FlightAware
03:33AM -23.5210 26.3590 157° South 497 572 39,000  Level FlightAware
03:33AM -23.6160 26.4030 157° South 497 572 39,000  Level FlightAware
03:34AM -23.7010 26.4430 157° South 495 570 39,000  Level FlightAware
03:35AM -23.7970 26.4880 157° South 493 567 39,000  Level FlightAware
03:35AM -23.8810 26.5270 157° South 492 566 39,000  Level FlightAware
03:36AM -23.9730 26.5700 157° South 492 566 39,000  Level FlightAware
03:37AM -24.0570 26.6100 157° South 494 568 39,000  Level FlightAware
03:38AM -24.1420 26.6500 157° South 493 567 39,000  Level FlightAware
03:38AM -24.2350 26.6940 157° South 493 567 39,000  Level FlightAware
03:39AM -24.3150 26.7430 151° Southeast 501 577 39,000  Level FlightAware
03:40AM -24.3940 26.8050 144° Southeast 501 577 39,000  Level FlightAware
03:40AM -24.4830 26.8490 156° South 483 556 39,000 -240 Level FlightAware
03:41AM -24.5660 26.8890 156° South 487 560 38,700 -960 Descending FlightAware
03:42AM -24.6610 26.9340 157° South 481 554 37,700 -1,680 Descending FlightAware
03:42AM -24.7430 26.9740 156° South 478 550 36,400 -2,220 Descending FlightAware
03:43AM -24.8250 27.0130 157° South 488 562 34,800 -2,400 Descending FlightAware
03:44AM -24.9170 27.0560 157° South 486 559 33,000 -2,400 Descending FlightAware
03:45AM -24.9980 27.0960 156° South 478 550 31,400 -2,100 Descending FlightAware
03:45AM -25.0900 27.1400 157° South 462 532 30,100 -1,740 Descending FlightAware
03:46AM -25.1680 27.1770 157° South 448 516 29,000 -1,740 Descending FlightAware
03:47AM -25.2440 27.2140 156° South 436 502 27,800 -1,740 Descending FlightAware
03:47AM -25.3240 27.2520 157° South 428 493 26,600 -1,680 Descending FlightAware
03:48AM -25.3970 27.2870 157° South 424 488 25,500 -1,680 Descending FlightAware
03:49AM -25.4790 27.3270 156° South 419 482 24,300 -1,200 Descending FlightAware
03:49AM -25.5490 27.3610 156° South 394 453 23,800 -600 Descending FlightAware
03:50AM -25.6120 27.3920 156° South 370 426 23,500 -540 Descending FlightAware
03:51AM -25.6730 27.4220 156° South 346 398 23,100 -600 Descending FlightAware
03:52AM -25.7310 27.4640 147° Southeast 345 397 22,700 -900 Descending FlightAware
03:52AM -25.7650 27.5250 122° Southeast 346 398 21,900 -1,200 Descending FlightAware
03:53AM -25.8020 27.5910 122° Southeast 344 396 21,000 -1,200 Descending FlightAware
03:54AM -25.8350 27.6510 121° Southeast 339 390 20,200 -1,200 Descending FlightAware
03:54AM -25.8720 27.7160 122° Southeast 333 383 19,300 -1,200 Descending FlightAware
03:55AM -25.9030 27.7730 121° Southeast 327 376 18,500 -1,200 Descending FlightAware
03:56AM -25.9350 27.8300 122° Southeast 319 367 17,700 -1,140 Descending FlightAware
03:56AM -25.9710 27.8940 122° Southeast 313 360 16,900 -1,140 Descending FlightAware
03:57AM -26.0010 27.9490 121° Southeast 311 358 16,100 -1,020 Descending FlightAware
03:58AM -26.0300 28.0010 122° Southeast 301 346 15,600 -600 Descending FlightAware
03:59AM -26.0630 28.0600 122° Southeast 274 315 15,300 -480 Descending FlightAware
03:59AM -26.0800 28.0860 126° Southeast 255 293 15,100 -480 Descending FlightAware
03:59AM -26.0950 28.0930 157° South 245 282 15,000 -900 Descending FlightAware
04:00AM -26.1400 28.0970 175° South 244 281 14,300 -1,020 Descending FlightAware
04:01AM -26.1900 28.0800 197° South 242 278 13,600 -960 Descending FlightAware
04:01AM -26.2390 28.0600 200° South 244 281 12,900 -1,020 Descending FlightAware
04:02AM -26.2820 28.0430 200° South 252 290 12,200 -1,080 Descending FlightAware
04:03AM -26.3270 28.0260 199° South 251 289 11,500 -1,020 Descending FlightAware
04:03AM -26.3660 28.0350 168° South 247 284 10,800 -960 Descending FlightAware
04:04AM -26.3900 28.0560 142° Southeast 238 274 10,400 -840 Descending FlightAware
04:05AM -26.4000 28.1010 104° East 209 241 9,900 -960 Descending FlightAware
04:05AM -26.4050 28.1310 101° East 202 232 9,300 -1,320 Descending FlightAware
04:06AM -26.3880 28.1610 58° Northeast 204 235 8,600 -1,320 Descending FlightAware
04:06AM -26.3690 28.1790 40° Northeast 209 241 8,100 -1,020 Descending FlightAware
04:06AM -26.3420 28.1920 23° Northeast 206 237 7,700 -840 Descending FlightAware
04:07AM -26.3280 28.1970 18° North 208 239 7,500 -480 Descending FlightAware
04:07AM -26.3070 28.2040 17° North 204 235 7,400 -240 Descending FlightAware
04:08AM -26.2790 28.2130 16° North 200 230 7,300 -720 Descending FlightAware
04:08AM -26.2520 28.2210 15° North 201 231 6,700 -1,140 Descending FlightAware
04:09AM -26.2300 28.2280 16° North 184 212 6,300 -1,020 Descending FlightAware
04:09AM -26.2060 28.2350 15° North 161 185 5,800 -960 Descending FlightAware
04:09AM -26.1960 28.2380 15° North 150 173 5,600 -720 Descending FlightAware
04:10AM -26.1850 28.2420 18° North 146 168 5,400 -660 Descending FlightAware
04:10AM -26.1630 28.2480 14° North 147 169 5,000 -720 Descending FlightAware